sensor_id;sensor_type;location;lat;lon;timestamp;pressure;altitude;pressure_sealevel;temperature;humidity
16094;BME280;8151;47.824;12.092;2022-09-09T00:01:23;96093.78;;;17.74;72.08
16094;BME280;8151;47.824;12.092;2022-09-09T00:04:53;96094.00;;;17.72;72.13
16094;BME280;8151;47.824;12.092;2022-09-09T00:08:18;96086.19;;;17.70;72.18
16094;BME280;8151;47.824;12.092;2022-09-09T00:11:43;96089.09;;;17.69;72.11
16094;BME280;8151;47.824;12.092;2022-09-09T00:15:03;96094.44;;;17.69;72.23
16094;BME280;8151;47.824;12.092;2022-09-09T00:18:26;96079.41;;;17.68;72.06
16094;BME280;8151;47.824;12.092;2022-09-09T00:21:50;96082.25;;;17.73;72.07
16094;BME280;8151;47.824;12.092;2022-09-09T00:25:12;96086.78;;;17.73;72.23
16094;BME280;8151;47.824;12.092;2022-09-09T00:28:38;96088.66;;;17.72;72.12
16094;BME280;8151;47.824;12.092;2022-09-09T00:31:57;96083.31;;;17.72;72.20
16094;BME280;8151;47.824;12.092;2022-09-09T00:35:22;96085.16;;;17.71;72.10
16094;BME280;8151;47.824;12.092;2022-09-09T00:38:42;96095.63;;;17.73;72.20
16094;BME280;8151;47.824;12.092;2022-09-09T00:42:11;96096.69;;;17.72;72.13
16094;BME280;8151;47.824;12.092;2022-09-09T00:45:47;96099.56;;;17.70;72.22
16094;BME280;8151;47.824;12.092;2022-09-09T00:49:15;96091.16;;;17.67;72.29
16094;BME280;8151;47.824;12.092;2022-09-09T00:52:41;96094.44;;;17.69;72.25
16094;BME280;8151;47.824;12.092;2022-09-09T00:56:09;96087.69;;;17.66;72.40
16094;BME280;8151;47.824;12.092;2022-09-09T00:59:32;96098.22;;;17.61;72.48
16094;BME280;8151;47.824;12.092;2022-09-09T01:03:25;96102.16;;;17.59;72.81
16094;BME280;8151;47.824;12.092;2022-09-09T01:06:45;96099.91;;;17.56;72.75
16094;BME280;8151;47.824;12.092;2022-09-09T01:10:11;96101.81;;;17.48;72.94
16094;BME280;8151;47.824;12.092;2022-09-09T01:13:34;96107.81;;;17.44;73.14
16094;BME280;8151;47.824;12.092;2022-09-09T01:16:55;96108.88;;;17.43;73.09
16094;BME280;8151;47.824;12.092;2022-09-09T01:20:19;96117.09;;;17.41;73.38
16094;BME280;8151;47.824;12.092;2022-09-09T01:23:48;96115.66;;;17.39;73.38
16094;BME280;8151;47.824;12.092;2022-09-09T01:27:13;96120.66;;;17.35;73.45
16094;BME280;8151;47.824;12.092;2022-09-09T01:30:31;96118.22;;;17.27;73.78
16094;BME280;8151;47.824;12.092;2022-09-09T01:33:49;96132.03;;;17.24;74.11
16094;BME280;8151;47.824;12.092;2022-09-09T01:37:07;96128.38;;;17.18;74.35
16094;BME280;8151;47.824;12.092;2022-09-09T01:40:25;96133.59;;;17.06;74.70
16094;BME280;8151;47.824;12.092;2022-09-09T01:43:43;96121.28;;;16.99;75.21
16094;BME280;8151;47.824;12.092;2022-09-09T01:47:01;96124.34;;;17.02;75.07
16094;BME280;8151;47.824;12.092;2022-09-09T01:50:19;96130.91;;;17.06;75.25
16094;BME280;8151;47.824;12.092;2022-09-09T01:53:36;96134.81;;;17.04;75.39
16094;BME280;8151;47.824;12.092;2022-09-09T01:57:01;96132.38;;;17.02;75.57
16094;BME280;8151;47.824;12.092;2022-09-09T02:00:23;96132.38;;;17.02;75.69
16094;BME280;8151;47.824;12.092;2022-09-09T02:03:43;96128.25;;;17.06;75.83
16094;BME280;8151;47.824;12.092;2022-09-09T02:07:02;96125.13;;;17.09;75.74
16094;BME280;8151;47.824;12.092;2022-09-09T02:10:23;96135.41;;;17.12;75.79
16094;BME280;8151;47.824;12.092;2022-09-09T02:13:40;96127.78;;;17.09;76.07
16094;BME280;8151;47.824;12.092;2022-09-09T02:17:03;96135.22;;;17.07;76.21
16094;BME280;8151;47.824;12.092;2022-09-09T02:20:24;96131.94;;;17.05;76.26
16094;BME280;8151;47.824;12.092;2022-09-09T02:23:42;96136.88;;;17.02;76.33
16094;BME280;8151;47.824;12.092;2022-09-09T02:27:03;96126.44;;;16.93;76.32
16094;BME280;8151;47.824;12.092;2022-09-09T02:30:21;96122.38;;;16.91;76.42
16094;BME280;8151;47.824;12.092;2022-09-09T02:33:42;96118.66;;;16.92;76.45
16094;BME280;8151;47.824;12.092;2022-09-09T02:37:02;96118.03;;;16.90;76.36
16094;BME280;8151;47.824;12.092;2022-09-09T02:40:20;96116.63;;;16.87;76.33
16094;BME280;8151;47.824;12.092;2022-09-09T02:43:36;96117.63;;;16.86;76.39
16094;BME280;8151;47.824;12.092;2022-09-09T02:47:12;96111.94;;;16.83;76.54
16094;BME280;8151;47.824;12.092;2022-09-09T02:50:34;96110.66;;;16.79;76.52
16094;BME280;8151;47.824;12.092;2022-09-09T02:53:58;96122.59;;;16.76;76.55
16094;BME280;8151;47.824;12.092;2022-09-09T02:57:21;96121.59;;;16.70;76.73
16094;BME280;8151;47.824;12.092;2022-09-09T03:00:39;96108.69;;;16.61;77.08
16094;BME280;8151;47.824;12.092;2022-09-09T03:03:56;96104.63;;;16.58;77.14
16094;BME280;8151;47.824;12.092;2022-09-09T03:07:13;96092.72;;;16.54;77.13
16094;BME280;8151;47.824;12.092;2022-09-09T03:10:30;96088.00;;;16.49;77.23
16094;BME280;8151;47.824;12.092;2022-09-09T03:13:46;96087.78;;;16.51;77.30
16094;BME280;8151;47.824;12.092;2022-09-09T03:17:02;96086.78;;;16.52;77.46
16094;BME280;8151;47.824;12.092;2022-09-09T03:20:18;96088.41;;;16.53;77.29
16094;BME280;8151;47.824;12.092;2022-09-09T03:23:35;96084.91;;;16.52;77.39
16094;BME280;8151;47.824;12.092;2022-09-09T03:26:52;96078.53;;;16.53;77.36
16094;BME280;8151;47.824;12.092;2022-09-09T03:30:10;96063.34;;;16.54;77.08
16094;BME280;8151;47.824;12.092;2022-09-09T03:33:27;96075.66;;;16.55;77.30
16094;BME280;8151;47.824;12.092;2022-09-09T03:36:43;96074.63;;;16.56;77.43
16094;BME280;8151;47.824;12.092;2022-09-09T03:40:01;96070.31;;;16.55;77.33
16094;BME280;8151;47.824;12.092;2022-09-09T03:43:17;96070.31;;;16.55;77.40
16094;BME280;8151;47.824;12.092;2022-09-09T03:46:33;96059.22;;;16.51;77.28
16094;BME280;8151;47.824;12.092;2022-09-09T03:49:50;96049.97;;;16.54;77.58
16094;BME280;8151;47.824;12.092;2022-09-09T03:53:06;96042.56;;;16.56;77.60
16094;BME280;8151;47.824;12.092;2022-09-09T03:56:24;96046.47;;;16.60;77.36
16094;BME280;8151;47.824;12.092;2022-09-09T03:59:41;96052.41;;;16.62;77.41
16094;BME280;8151;47.824;12.092;2022-09-09T04:02:57;96049.94;;;16.61;77.35
16094;BME280;8151;47.824;12.092;2022-09-09T04:06:15;96048.06;;;16.61;77.23
16094;BME280;8151;47.824;12.092;2022-09-09T04:09:33;96047.88;;;16.63;77.36
16094;BME280;8151;47.824;12.092;2022-09-09T04:12:51;96049.72;;;16.62;77.43
16094;BME280;8151;47.824;12.092;2022-09-09T04:16:09;96060.00;;;16.65;77.24
16094;BME280;8151;47.824;12.092;2022-09-09T04:19:26;96054.03;;;16.63;77.18
16094;BME280;8151;47.824;12.092;2022-09-09T04:22:42;96053.66;;;16.60;77.24
16094;BME280;8151;47.824;12.092;2022-09-09T04:26:00;96043.59;;;16.55;77.43
16094;BME280;8151;47.824;12.092;2022-09-09T04:29:18;96033.13;;;16.53;77.34
16094;BME280;8151;47.824;12.092;2022-09-09T04:32:35;96043.81;;;16.53;77.47
16094;BME280;8151;47.824;12.092;2022-09-09T04:35:52;96047.09;;;16.56;77.31
16094;BME280;8151;47.824;12.092;2022-09-09T04:39:08;96049.78;;;16.56;77.29
16094;BME280;8151;47.824;12.092;2022-09-09T04:42:24;96051.59;;;16.55;77.18
16094;BME280;8151;47.824;12.092;2022-09-09T04:45:42;96051.81;;;16.53;77.38
16094;BME280;8151;47.824;12.092;2022-09-09T04:48:58;96045.84;;;16.58;77.31
16094;BME280;8151;47.824;12.092;2022-09-09T04:52:14;96047.47;;;16.59;77.38
16094;BME280;8151;47.824;12.092;2022-09-09T04:55:30;96041.94;;;16.61;77.21
16094;BME280;8151;47.824;12.092;2022-09-09T04:58:47;96032.66;;;16.63;77.30
16094;BME280;8151;47.824;12.092;2022-09-09T05:02:06;96043.53;;;16.68;77.32
16094;BME280;8151;47.824;12.092;2022-09-09T05:05:22;96039.22;;;16.67;77.18
16094;BME280;8151;47.824;12.092;2022-09-09T05:08:39;96028.75;;;16.66;77.22
16094;BME280;8151;47.824;12.092;2022-09-09T05:11:56;96035.97;;;16.65;77.29
16094;BME280;8151;47.824;12.092;2022-09-09T05:15:12;96040.66;;;16.63;77.38
16094;BME280;8151;47.824;12.092;2022-09-09T05:18:30;96038.44;;;16.60;77.41
16094;BME280;8151;47.824;12.092;2022-09-09T05:21:47;96046.66;;;16.59;77.37
16094;BME280;8151;47.824;12.092;2022-09-09T05:25:06;96045.84;;;16.58;77.43
16094;BME280;8151;47.824;12.092;2022-09-09T05:28:23;96038.44;;;16.60;77.44
16094;BME280;8151;47.824;12.092;2022-09-09T05:31:39;96050.53;;;16.63;77.42
16094;BME280;8151;47.824;12.092;2022-09-09T05:34:57;96060.00;;;16.65;77.30
16094;BME280;8151;47.824;12.092;2022-09-09T05:38:13;96061.63;;;16.66;77.30
16094;BME280;8151;47.824;12.092;2022-09-09T05:41:29;96066.75;;;16.68;77.22
16094;BME280;8151;47.824;12.092;2022-09-09T05:44:45;96068.38;;;16.69;77.09
16094;BME280;8151;47.824;12.092;2022-09-09T05:48:01;96074.13;;;16.72;77.19
16094;BME280;8151;47.824;12.092;2022-09-09T05:51:21;96081.94;;;16.74;76.95
16094;BME280;8151;47.824;12.092;2022-09-09T05:54:38;96086.00;;;16.77;77.01
16094;BME280;8151;47.824;12.092;2022-09-09T05:57:54;96087.06;;;16.76;77.03
16094;BME280;8151;47.824;12.092;2022-09-09T06:01:12;96085.00;;;16.78;76.91
16094;BME280;8151;47.824;12.092;2022-09-09T06:04:28;96087.06;;;16.76;77.04
16094;BME280;8151;47.824;12.092;2022-09-09T06:07:46;96080.25;;;16.80;77.03
16094;BME280;8151;47.824;12.092;2022-09-09T06:11:04;96087.47;;;16.79;76.97
16094;BME280;8151;47.824;12.092;2022-09-09T06:14:21;96090.72;;;16.81;76.78
16094;BME280;8151;47.824;12.092;2022-09-09T06:17:37;96086.22;;;16.82;76.79
16094;BME280;8151;47.824;12.092;2022-09-09T06:20:55;96093.38;;;16.88;76.88
16094;BME280;8151;47.824;12.092;2022-09-09T06:24:13;96094.81;;;16.90;76.86
16094;BME280;8151;47.824;12.092;2022-09-09T06:27:31;96085.75;;;16.91;76.82
16094;BME280;8151;47.824;12.092;2022-09-09T06:30:47;96087.19;;;16.94;76.80
16094;BME280;8151;47.824;12.092;2022-09-09T06:34:05;96087.56;;;16.98;76.73
16094;BME280;8151;47.824;12.092;2022-09-09T06:37:22;96092.09;;;16.97;76.73
16094;BME280;8151;47.824;12.092;2022-09-09T06:40:40;96091.28;;;16.97;76.80
16094;BME280;8151;47.824;12.092;2022-09-09T06:43:58;96087.19;;;16.94;76.90
16094;BME280;8151;47.824;12.092;2022-09-09T06:47:15;96106.94;;;16.93;76.83
16094;BME280;8151;47.824;12.092;2022-09-09T06:50:31;96107.13;;;16.91;76.86
16094;BME280;8151;47.824;12.092;2022-09-09T06:53:50;96097.50;;;16.90;76.98
16094;BME280;8151;47.824;12.092;2022-09-09T06:57:09;96097.72;;;16.89;76.99
16094;BME280;8151;47.824;12.092;2022-09-09T07:00:25;96104.69;;;16.90;77.08
16094;BME280;8151;47.824;12.092;2022-09-09T07:03:45;96094.19;;;16.88;77.05
16094;BME280;8151;47.824;12.092;2022-09-09T07:07:02;96099.94;;;16.92;76.97
16094;BME280;8151;47.824;12.092;2022-09-09T07:10:19;96094.97;;;16.96;76.94
16094;BME280;8151;47.824;12.092;2022-09-09T07:13:37;96092.09;;;16.97;76.79
16094;BME280;8151;47.824;12.092;2022-09-09T07:16:54;96087.16;;;17.01;76.58
16094;BME280;8151;47.824;12.092;2022-09-09T07:20:11;96087.94;;;17.08;76.48
16094;BME280;8151;47.824;12.092;2022-09-09T07:23:29;96093.00;;;17.16;76.46
16094;BME280;8151;47.824;12.092;2022-09-09T07:26:45;96092.34;;;17.21;76.54
16094;BME280;8151;47.824;12.092;2022-09-09T07:30:04;96084.72;;;17.24;76.32
16094;BME280;8151;47.824;12.092;2022-09-09T07:33:20;96089.66;;;17.27;76.31
16094;BME280;8151;47.824;12.092;2022-09-09T07:36:38;96085.91;;;17.28;76.54
16094;BME280;8151;47.824;12.092;2022-09-09T07:39:55;96085.72;;;17.30;76.50
16094;BME280;8151;47.824;12.092;2022-09-09T07:42:24;96100.50;;;17.32;76.41
16094;BME280;8151;47.824;12.092;2022-09-09T07:44:52;96110.59;;;17.30;76.47
16094;BME280;8151;47.824;12.092;2022-09-09T07:47:23;96113.47;;;17.29;76.65
16094;BME280;8151;47.824;12.092;2022-09-09T07:49:52;96121.13;;;17.25;76.66
16094;BME280;8151;47.824;12.092;2022-09-09T07:52:20;96124.44;;;17.21;76.93
16094;BME280;8151;47.824;12.092;2022-09-09T07:54:49;96123.22;;;17.17;77.02
16094;BME280;8151;47.824;12.092;2022-09-09T07:57:19;96115.88;;;17.12;77.21
16094;BME280;8151;47.824;12.092;2022-09-09T07:59:48;96113.00;;;17.07;77.54
16094;BME280;8151;47.824;12.092;2022-09-09T08:02:17;96125.56;;;17.06;77.42
16094;BME280;8151;47.824;12.092;2022-09-09T08:04:47;96118.78;;;17.04;77.54
16094;BME280;8151;47.824;12.092;2022-09-09T08:07:15;96127.63;;;17.04;77.70
16094;BME280;8151;47.824;12.092;2022-09-09T08:09:44;96123.31;;;17.03;77.75
16094;BME280;8151;47.824;12.092;2022-09-09T08:12:13;96120.84;;;17.02;77.85
16094;BME280;8151;47.824;12.092;2022-09-09T08:14:42;96127.03;;;17.02;78.06
16094;BME280;8151;47.824;12.092;2022-09-09T08:17:10;96131.13;;;17.05;77.92
16094;BME280;8151;47.824;12.092;2022-09-09T08:19:38;96137.88;;;17.07;77.84
16094;BME280;8151;47.824;12.092;2022-09-09T08:22:08;96137.88;;;17.07;77.81
16094;BME280;8151;47.824;12.092;2022-09-09T08:24:37;96140.56;;;17.07;77.81
16094;BME280;8151;47.824;12.092;2022-09-09T08:27:06;96144.06;;;17.08;78.04
16094;BME280;8151;47.824;12.092;2022-09-09T08:29:34;96145.91;;;17.07;77.90
16094;BME280;8151;47.824;12.092;2022-09-09T08:32:04;96152.91;;;17.08;78.23
16094;BME280;8151;47.824;12.092;2022-09-09T08:34:33;96154.53;;;17.09;78.24
16094;BME280;8151;47.824;12.092;2022-09-09T08:37:02;96179.63;;;17.08;78.40
16094;BME280;8151;47.824;12.092;2022-09-09T08:39:31;96188.28;;;17.04;78.62
16094;BME280;8151;47.824;12.092;2022-09-09T08:42:24;96201.47;;;16.99;79.23
16094;BME280;8151;47.824;12.092;2022-09-09T08:45:18;96203.75;;;16.88;79.61
16094;BME280;8151;47.824;12.092;2022-09-09T08:47:57;96206.84;;;16.92;79.76
16094;BME280;8151;47.824;12.092;2022-09-09T08:50:29;96210.72;;;16.96;79.69
16094;BME280;8151;47.824;12.092;2022-09-09T08:53:05;96206.78;;;17.05;79.42
16094;BME280;8151;47.824;12.092;2022-09-09T08:55:44;96205.09;;;17.18;79.11
16094;BME280;8151;47.824;12.092;2022-09-09T08:58:15;96202.75;;;17.28;79.16
16094;BME280;8151;47.824;12.092;2022-09-09T09:00:57;96206.66;;;17.32;79.13
16094;BME280;8151;47.824;12.092;2022-09-09T09:03:36;96195.53;;;17.35;79.21
16094;BME280;8151;47.824;12.092;2022-09-09T09:06:18;96205.09;;;17.49;78.88
16094;BME280;8151;47.824;12.092;2022-09-09T09:09:01;96201.13;;;17.59;78.72
16094;BME280;8151;47.824;12.092;2022-09-09T09:11:37;96195.13;;;17.63;78.85
16094;BME280;8151;47.824;12.092;2022-09-09T09:14:11;96204.13;;;17.69;78.85
16094;BME280;8151;47.824;12.092;2022-09-09T09:16:50;96209.66;;;17.74;78.56
16094;BME280;8151;47.824;12.092;2022-09-09T09:19:19;96203.28;;;17.75;78.48
16094;BME280;8151;47.824;12.092;2022-09-09T09:21:53;96207.59;;;17.76;78.31
16094;BME280;8151;47.824;12.092;2022-09-09T09:24:31;96205.94;;;17.75;78.22
16094;BME280;8151;47.824;12.092;2022-09-09T09:27:12;96205.72;;;17.77;78.04
16094;BME280;8151;47.824;12.092;2022-09-09T09:29:42;96212.94;;;17.76;77.97
16094;BME280;8151;47.824;12.092;2022-09-09T09:32:34;96212.09;;;17.76;78.06
16094;BME280;8151;47.824;12.092;2022-09-09T09:35:10;96212.94;;;17.76;77.81
16094;BME280;8151;47.824;12.092;2022-09-09T09:37:41;96227.97;;;17.77;77.91
16094;BME280;8151;47.824;12.092;2022-09-09T09:40:30;96225.28;;;17.77;78.07
16094;BME280;8151;47.824;12.092;2022-09-09T09:43:03;96222.59;;;17.77;78.24
16094;BME280;8151;47.824;12.092;2022-09-09T09:45:41;96227.13;;;17.77;78.29
16094;BME280;8151;47.824;12.092;2022-09-09T09:48:31;96222.44;;;17.72;78.59
16094;BME280;8151;47.824;12.092;2022-09-09T09:51:09;96221.59;;;17.71;78.79
16094;BME280;8151;47.824;12.092;2022-09-09T09:53:39;96224.53;;;17.70;78.72
16094;BME280;8151;47.824;12.092;2022-09-09T09:56:09;96225.75;;;17.67;79.21
16094;BME280;8151;47.824;12.092;2022-09-09T09:58:50;96224.34;;;17.65;79.60
16094;BME280;8151;47.824;12.092;2022-09-09T10:01:21;96224.75;;;17.62;79.52
16094;BME280;8151;47.824;12.092;2022-09-09T10:03:52;96229.09;;;17.63;79.68
16094;BME280;8151;47.824;12.092;2022-09-09T10:06:31;96224.56;;;17.63;79.71
16094;BME280;8151;47.824;12.092;2022-09-09T10:09:01;96231.16;;;17.61;79.89
16094;BME280;8151;47.824;12.092;2022-09-09T10:11:42;96240.06;;;17.55;80.29
16094;BME280;8151;47.824;12.092;2022-09-09T10:14:19;96236.78;;;17.52;80.70
16094;BME280;8151;47.824;12.092;2022-09-09T10:17:06;96219.47;;;17.55;80.95
16094;BME280;8151;47.824;12.092;2022-09-09T10:19:37;96221.47;;;17.60;80.87
16094;BME280;8151;47.824;12.092;2022-09-09T10:22:22;96220.00;;;17.64;81.24
16094;BME280;8151;47.824;12.092;2022-09-09T10:25:12;96219.13;;;17.77;81.52
16094;BME280;8151;47.824;12.092;2022-09-09T10:27:54;96225.22;;;17.90;81.01
16094;BME280;8151;47.824;12.092;2022-09-09T10:30:41;96220.63;;;17.98;80.92
16094;BME280;8151;47.824;12.092;2022-09-09T10:33:22;96229.06;;;18.01;81.07
16094;BME280;8151;47.824;12.092;2022-09-09T10:36:01;96232.13;;;18.05;81.22
16094;BME280;8151;47.824;12.092;2022-09-09T10:38:39;96243.19;;;18.08;81.07
16094;BME280;8151;47.824;12.092;2022-09-09T10:41:26;96245.25;;;18.06;81.07
16094;BME280;8151;47.824;12.092;2022-09-09T10:44:28;96238.91;;;18.01;80.99
16094;BME280;8151;47.824;12.092;2022-09-09T10:47:18;96241.00;;;17.99;81.30
16094;BME280;8151;47.824;12.092;2022-09-09T10:53:02;96240.38;;;18.03;81.04
16094;BME280;8151;47.824;12.092;2022-09-09T10:55:39;96237.28;;;18.00;81.21
16094;BME280;8151;47.824;12.092;2022-09-09T10:58:13;96236.03;;;18.02;81.41
16094;BME280;8151;47.824;12.092;2022-09-09T11:00:45;96225.09;;;18.04;81.07
16094;BME280;8151;47.824;12.092;2022-09-09T11:03:20;96229.66;;;18.03;81.02
16094;BME280;8151;47.824;12.092;2022-09-09T11:05:54;96227.97;;;18.09;80.73
16094;BME280;8151;47.824;12.092;2022-09-09T11:08:29;96235.13;;;18.15;80.55
16094;BME280;8151;47.824;12.092;2022-09-09T11:11:02;96230.78;;;18.14;80.59
16094;BME280;8151;47.824;12.092;2022-09-09T11:13:39;96229.38;;;18.12;80.45
16094;BME280;8151;47.824;12.092;2022-09-09T11:16:22;96223.22;;;18.11;80.98
16094;BME280;8151;47.824;12.092;2022-09-09T11:18:58;96235.94;;;18.16;81.01
16094;BME280;8151;47.824;12.092;2022-09-09T11:21:33;96229.91;;;18.20;80.90
16094;BME280;8151;47.824;12.092;2022-09-09T11:24:06;96227.59;;;18.24;80.77
16094;BME280;8151;47.824;12.092;2022-09-09T11:26:42;96219.97;;;18.27;80.81
16094;BME280;8151;47.824;12.092;2022-09-09T11:29:32;96219.31;;;18.32;80.77
16094;BME280;8151;47.824;12.092;2022-09-09T11:32:20;96223.56;;;18.40;80.24
16094;BME280;8151;47.824;12.092;2022-09-09T11:35:05;96223.91;;;18.43;80.00
16094;BME280;8151;47.824;12.092;2022-09-09T11:37:49;96229.66;;;18.47;79.83
16094;BME280;8151;47.824;12.092;2022-09-09T11:40:23;96230.13;;;18.44;80.04
16094;BME280;8151;47.824;12.092;2022-09-09T11:43:04;96230.13;;;18.44;79.99
16094;BME280;8151;47.824;12.092;2022-09-09T11:45:34;96229.94;;;18.39;80.28
16094;BME280;8151;47.824;12.092;2022-09-09T11:48:04;96234.94;;;18.35;80.07
16094;BME280;8151;47.824;12.092;2022-09-09T11:50:36;96233.72;;;18.31;80.48
16094;BME280;8151;47.824;12.092;2022-09-09T11:53:18;96223.44;;;18.28;80.81
16094;BME280;8151;47.824;12.092;2022-09-09T11:56:07;96220.13;;;18.33;80.97
16094;BME280;8151;47.824;12.092;2022-09-09T11:58:39;96223.78;;;18.38;80.72
16094;BME280;8151;47.824;12.092;2022-09-09T12:01:39;96217.75;;;18.43;80.48
16094;BME280;8151;47.824;12.092;2022-09-09T12:04:32;96227.19;;;18.45;80.38
16094;BME280;8151;47.824;12.092;2022-09-09T12:07:04;96221.03;;;18.45;80.30
16094;BME280;8151;47.824;12.092;2022-09-09T12:09:44;96224.91;;;18.49;79.99
16094;BME280;8151;47.824;12.092;2022-09-09T12:12:33;96228.63;;;18.48;79.79
16094;BME280;8151;47.824;12.092;2022-09-09T12:15:23;96227.44;;;18.44;79.81
16094;BME280;8151;47.824;12.092;2022-09-09T12:17:56;96233.81;;;18.43;79.62
16094;BME280;8151;47.824;12.092;2022-09-09T12:20:34;96232.41;;;18.40;79.75
16094;BME280;8151;47.824;12.092;2022-09-09T12:23:30;96225.25;;;18.34;79.89
16094;BME280;8151;47.824;12.092;2022-09-09T12:26:31;96224.88;;;18.30;80.17
16094;BME280;8151;47.824;12.092;2022-09-09T12:29:09;96216.84;;;18.30;80.14
16094;BME280;8151;47.824;12.092;2022-09-09T12:31:45;96224.88;;;18.30;80.44
16094;BME280;8151;47.824;12.092;2022-09-09T12:34:16;96223.81;;;18.32;80.39
16094;BME280;8151;47.824;12.092;2022-09-09T12:36:52;96224.22;;;18.35;80.11
16094;BME280;8151;47.824;12.092;2022-09-09T12:39:30;96234.50;;;18.38;80.05
16094;BME280;8151;47.824;12.092;2022-09-09T13:34:12;96204.28;;;18.06;80.00
16094;BME280;8151;47.824;12.092;2022-09-09T13:36:41;96200.00;;;18.05;80.26
16094;BME280;8151;47.824;12.092;2022-09-09T13:39:15;96194.63;;;18.05;80.34
16094;BME280;8151;47.824;12.092;2022-09-09T13:41:48;96200.59;;;18.07;80.44
16094;BME280;8151;47.824;12.092;2022-09-09T13:44:20;96191.72;;;18.06;80.36
16094;BME280;8151;47.824;12.092;2022-09-09T13:47:03;96179.16;;;18.07;80.62
16094;BME280;8151;47.824;12.092;2022-09-09T13:49:39;96179.78;;;18.09;80.68
16094;BME280;8151;47.824;12.092;2022-09-09T13:52:10;96168.00;;;18.10;80.64
16094;BME280;8151;47.824;12.092;2022-09-09T13:54:40;96168.00;;;18.10;80.57
16094;BME280;8151;47.824;12.092;2022-09-09T13:57:15;96169.44;;;18.13;80.64
16094;BME280;8151;47.824;12.092;2022-09-09T13:59:44;96165.50;;;18.15;80.76
16094;BME280;8151;47.824;12.092;2022-09-09T14:02:31;96167.72;;;18.18;80.70
16094;BME280;8151;47.824;12.092;2022-09-09T14:05:01;96147.13;;;18.19;80.42
16094;BME280;8151;47.824;12.092;2022-09-09T14:07:29;96141.19;;;18.17;80.56
16094;BME280;8151;47.824;12.092;2022-09-09T14:09:59;96137.06;;;18.14;80.51
16094;BME280;8151;47.824;12.092;2022-09-09T14:12:27;96136.25;;;18.14;80.51
16094;BME280;8151;47.824;12.092;2022-09-09T14:14:56;96143.25;;;18.15;80.16
16094;BME280;8151;47.824;12.092;2022-09-09T14:17:24;96141.81;;;18.12;80.09
16094;BME280;8151;47.824;12.092;2022-09-09T14:20:01;96143.47;;;18.13;79.94
16094;BME280;8151;47.824;12.092;2022-09-09T14:22:29;96145.09;;;18.14;79.99
16094;BME280;8151;47.824;12.092;2022-09-09T14:24:58;96149.44;;;18.15;79.85
16094;BME280;8151;47.824;12.092;2022-09-09T14:27:26;96145.09;;;18.14;79.74
16094;BME280;8151;47.824;12.092;2022-09-09T14:29:54;96148.63;;;18.15;79.49
16094;BME280;8151;47.824;12.092;2022-09-09T14:32:23;96153.59;;;18.11;79.48
16094;BME280;8151;47.824;12.092;2022-09-09T14:34:52;96151.34;;;18.08;79.38
16094;BME280;8151;47.824;12.092;2022-09-09T14:37:21;96158.56;;;18.07;79.14
16094;BME280;8151;47.824;12.092;2022-09-09T14:39:51;96150.31;;;18.09;78.92
16094;BME280;8151;47.824;12.092;2022-09-09T14:42:21;96149.44;;;18.15;78.95
16094;BME280;8151;47.824;12.092;2022-09-09T14:44:50;96134.78;;;18.18;78.75
16094;BME280;8151;47.824;12.092;2022-09-09T14:47:18;96137.81;;;18.21;78.53
16094;BME280;8151;47.824;12.092;2022-09-09T14:49:47;96129.13;;;18.26;78.12
16094;BME280;8151;47.824;12.092;2022-09-09T14:52:16;96130.56;;;18.28;77.86
16094;BME280;8151;47.824;12.092;2022-09-09T14:54:46;96127.66;;;18.30;77.69
16094;BME280;8151;47.824;12.092;2022-09-09T14:57:14;96130.56;;;18.28;77.63
16094;BME280;8151;47.824;12.092;2022-09-09T14:59:43;96134.47;;;18.26;77.64
16094;BME280;8151;47.824;12.092;2022-09-09T15:02:11;96134.47;;;18.26;77.49
16094;BME280;8151;47.824;12.092;2022-09-09T15:04:41;96135.53;;;18.25;77.52
16094;BME280;8151;47.824;12.092;2022-09-09T15:07:09;96132.84;;;18.25;77.53
16094;BME280;8151;47.824;12.092;2022-09-09T15:09:38;96139.19;;;18.30;77.43
16094;BME280;8151;47.824;12.092;2022-09-09T15:12:08;96131.88;;;18.38;77.21
16094;BME280;8151;47.824;12.092;2022-09-09T15:14:37;96134.13;;;18.41;76.96
16094;BME280;8151;47.824;12.092;2022-09-09T15:17:05;96128.31;;;18.44;77.09
16094;BME280;8151;47.824;12.092;2022-09-09T15:19:33;96121.69;;;18.46;76.92
16094;BME280;8151;47.824;12.092;2022-09-09T15:22:03;96114.47;;;18.47;76.99
16094;BME280;8151;47.824;12.092;2022-09-09T15:24:34;96120.63;;;18.47;76.97
16094;BME280;8151;47.824;12.092;2022-09-09T15:27:04;96117.16;;;18.47;77.01
16094;BME280;8151;47.824;12.092;2022-09-09T15:29:34;96114.69;;;18.45;77.07
16094;BME280;8151;47.824;12.092;2022-09-09T15:32:02;96109.56;;;18.44;76.87
16094;BME280;8151;47.824;12.092;2022-09-09T15:34:31;96114.94;;;18.44;76.55
16094;BME280;8151;47.824;12.092;2022-09-09T15:36:59;96110.59;;;18.43;76.54
16094;BME280;8151;47.824;12.092;2022-09-09T15:39:28;96114.34;;;18.42;76.49
16094;BME280;8151;47.824;12.092;2022-09-09T15:41:56;96125.25;;;18.40;76.43
16094;BME280;8151;47.824;12.092;2022-09-09T15:44:25;96121.63;;;18.35;76.31
16094;BME280;8151;47.824;12.092;2022-09-09T15:46:54;96126.00;;;18.29;76.41
16094;BME280;8151;47.824;12.092;2022-09-09T15:49:24;96124.00;;;18.24;76.63
16094;BME280;8151;47.824;12.092;2022-09-09T15:51:55;96128.13;;;18.20;76.26
16094;BME280;8151;47.824;12.092;2022-09-09T15:54:25;96118.69;;;18.18;76.42
16094;BME280;8151;47.824;12.092;2022-09-09T15:56:55;96121.59;;;18.16;76.39
16094;BME280;8151;47.824;12.092;2022-09-09T15:59:25;96122.06;;;18.13;76.47
16094;BME280;8151;47.824;12.092;2022-09-09T16:01:56;96119.81;;;18.10;76.45
16094;BME280;8151;47.824;12.092;2022-09-09T16:04:27;96124.56;;;18.08;76.45
16094;BME280;8151;47.824;12.092;2022-09-09T16:06:58;96128.31;;;18.07;76.50
16094;BME280;8151;47.824;12.092;2022-09-09T16:09:29;96125.84;;;18.05;76.24
16094;BME280;8151;47.824;12.092;2022-09-09T16:11:58;96125.47;;;18.02;76.29
16094;BME280;8151;47.824;12.092;2022-09-09T16:14:28;96123.22;;;17.99;76.22
16094;BME280;8151;47.824;12.092;2022-09-09T16:17:03;96125.28;;;17.97;76.22